createdAt,value
2022-08-02T00:01:12.056Z,2.05
2022-08-02T00:03:41.931Z,2.30
2022-08-02T00:06:11.895Z,2.40
2022-08-02T00:08:41.964Z,2.38
2022-08-02T00:11:13.379Z,2.45
2022-08-02T00:13:43.898Z,3.35
2022-08-02T00:16:16.719Z,2.45
2022-08-02T00:18:47.900Z,2.40
2022-08-02T00:21:18.026Z,2.97
2022-08-02T00:24:29.383Z,2.85
2022-08-02T00:26:40.499Z,2.80
2022-08-02T00:29:10.381Z,3.08
2022-08-02T00:31:40.489Z,2.42
2022-08-02T00:34:29.927Z,2.50
2022-08-02T00:37:00.954Z,2.80
2022-08-02T00:39:34.052Z,2.70
2022-08-02T00:42:07.294Z,3.30
2022-08-02T00:44:37.309Z,2.63
2022-08-02T00:47:07.445Z,2.92
2022-08-02T00:49:37.588Z,2.83
2022-08-02T00:52:08.283Z,2.75
2022-08-02T00:54:38.493Z,3.22
2022-08-02T00:57:09.964Z,2.90
2022-08-02T00:59:39.910Z,2.60
2022-08-02T01:02:10.347Z,3.47
2022-08-02T01:04:40.508Z,3.45
2022-08-02T01:07:13.126Z,3.50
2022-08-02T01:09:44.086Z,3.42
2022-08-02T01:12:16.550Z,3.40
2022-08-02T01:14:49.208Z,2.70
2022-08-02T01:17:24.784Z,2.60
2022-08-02T01:20:06.612Z,2.97
2022-08-02T01:23:03.663Z,3.35
2022-08-02T01:26:04.205Z,2.80
2022-08-02T01:28:40.011Z,3.47
2022-08-02T01:31:17.579Z,3.65
2022-08-02T01:33:52.997Z,3.45
2022-08-02T01:36:25.014Z,2.60
2022-08-02T01:38:57.030Z,2.90
2022-08-02T01:41:29.686Z,2.55
2022-08-02T01:44:03.109Z,2.42
2022-08-02T01:46:35.066Z,2.80
2022-08-02T01:49:09.542Z,3.05
2022-08-02T01:51:58.590Z,2.60
2022-08-02T01:54:32.419Z,2.92
2022-08-02T01:59:36.345Z,3.67
2022-08-02T02:02:10.340Z,2.90
2022-08-02T02:04:42.115Z,2.75
2022-08-02T02:07:15.798Z,2.85
2022-08-02T02:09:50.473Z,3.30
2022-08-02T02:12:24.419Z,4.75
2022-08-02T02:14:57.266Z,3.40
2022-08-02T02:17:52.826Z,3.42
2022-08-02T02:20:21.364Z,5.63
2022-08-02T02:22:52.017Z,4.65
2022-08-02T02:25:32.941Z,3.97
2022-08-02T02:28:11.226Z,3.90
2022-08-02T02:30:49.972Z,4.97
2022-08-02T02:33:24.159Z,4.45
2022-08-02T02:35:59.327Z,3.60
2022-08-02T02:38:32.848Z,3.72
2022-08-02T02:43:36.497Z,2.88
2022-08-02T02:46:09.767Z,3.50
2022-08-02T02:48:40.836Z,3.03
2022-08-02T02:51:13.950Z,3.25
2022-08-02T02:54:30.588Z,3.13
2022-08-02T02:56:38.137Z,3.20
2022-08-02T02:59:09.253Z,3.25
2022-08-02T03:01:57.419Z,3.60
2022-08-02T03:04:55.218Z,3.72
2022-08-02T03:07:19.562Z,4.15
2022-08-02T03:09:54.234Z,3.65
2022-08-02T03:12:31.503Z,3.60
2022-08-02T03:15:05.546Z,4.03
2022-08-02T03:17:44.923Z,3.40
2022-08-02T03:20:17.192Z,4.60
2022-08-02T03:22:48.968Z,3.55
2022-08-02T03:25:19.822Z,3.30
2022-08-02T03:27:49.749Z,3.70
2022-08-02T03:30:19.775Z,3.47
2022-08-02T03:32:51.652Z,3.38
2022-08-02T03:35:24.485Z,3.55
2022-08-02T03:37:56.864Z,3.45
2022-08-02T03:40:27.229Z,3.72
2022-08-02T03:42:57.831Z,3.17
2022-08-02T03:45:28.179Z,3.22
2022-08-02T03:47:59.877Z,3.28
2022-08-02T03:50:30.068Z,3.47
2022-08-02T03:53:00.563Z,3.88
2022-08-02T03:55:30.520Z,4.00
2022-08-02T03:58:00.694Z,3.38
2022-08-02T04:00:30.763Z,3.83
2022-08-02T04:03:03.468Z,4.22
2022-08-02T04:05:33.440Z,3.80
2022-08-02T04:08:35.165Z,4.38
2022-08-02T04:11:11.145Z,3.75
2022-08-02T04:13:42.100Z,4.10
2022-08-02T04:16:17.288Z,3.70
2022-08-02T04:18:55.156Z,4.43
2022-08-02T04:21:48.517Z,4.38
2022-08-02T04:24:24.513Z,4.57
2022-08-02T04:26:57.845Z,5.10
2022-08-02T04:29:34.284Z,4.28
2022-08-02T04:32:06.057Z,4.60
2022-08-02T04:34:37.432Z,4.97
2022-08-02T04:37:08.268Z,5.18
2022-08-02T04:39:38.276Z,5.10
2022-08-02T04:42:09.058Z,5.70
2022-08-02T04:44:39.219Z,5.47
2022-08-02T04:47:09.764Z,4.30
2022-08-02T04:49:41.115Z,3.50
2022-08-02T04:52:11.462Z,3.97
2022-08-02T04:54:41.597Z,4.05
2022-08-02T04:57:26.149Z,3.42
2022-08-02T04:59:57.383Z,4.00
2022-08-02T05:02:27.479Z,3.65
2022-08-02T05:04:58.845Z,4.25
2022-08-02T05:07:29.389Z,3.78
2022-08-02T05:10:06.952Z,3.90
2022-08-02T05:12:38.958Z,3.75
2022-08-02T05:15:12.728Z,3.50
2022-08-02T05:17:47.404Z,3.95
2022-08-02T05:20:20.206Z,4.47
2022-08-02T05:22:50.128Z,3.40
2022-08-02T05:25:20.084Z,4.60
2022-08-02T05:27:50.004Z,3.40
2022-08-02T05:30:20.091Z,3.85
2022-08-02T05:32:52.651Z,3.90
2022-08-02T05:35:25.859Z,3.05
2022-08-02T05:37:55.719Z,3.80
2022-08-02T05:40:26.294Z,3.80
2022-08-02T05:42:56.515Z,3.47
2022-08-02T05:45:27.025Z,3.33
2022-08-02T05:47:57.412Z,3.33
2022-08-02T05:50:28.763Z,3.20
2022-08-02T05:53:05.236Z,2.90
2022-08-02T05:55:36.937Z,2.90
2022-08-02T05:58:14.424Z,2.58
2022-08-02T06:00:46.453Z,2.38
2022-08-02T06:03:23.560Z,2.83
2022-08-02T06:06:01.311Z,2.80
2022-08-02T06:08:34.615Z,2.55
2022-08-02T06:11:07.581Z,2.28
2022-08-02T06:13:38.808Z,3.15
2022-08-02T06:16:14.180Z,2.80
2022-08-02T06:18:45.590Z,3.00
2022-08-02T06:22:31.917Z,2.75
2022-08-02T06:24:09.746Z,2.45
2022-08-02T06:26:40.048Z,2.10
2022-08-02T06:29:10.523Z,2.83
2022-08-02T06:31:42.514Z,2.55
2022-08-02T06:34:15.223Z,2.97
2022-08-02T06:36:57.266Z,3.00
2022-08-02T06:39:34.139Z,3.17
2022-08-02T06:42:09.875Z,3.00
2022-08-02T06:44:50.036Z,2.50
2022-08-02T06:47:22.929Z,2.40
2022-08-02T06:49:54.183Z,2.30
2022-08-02T06:52:30.001Z,2.35
2022-08-02T06:55:01.655Z,2.10
2022-08-02T06:57:32.125Z,2.80
2022-08-02T07:00:05.043Z,2.60
2022-08-02T07:02:36.478Z,2.08
2022-08-02T07:05:07.424Z,2.60
2022-08-02T07:07:38.830Z,3.22
2022-08-02T07:10:09.840Z,2.28
2022-08-02T07:12:40.164Z,2.08
2022-08-02T07:15:12.605Z,2.40
2022-08-02T07:17:42.518Z,2.50
2022-08-02T07:20:13.586Z,2.50
2022-08-02T07:22:44.987Z,2.15
2022-08-02T07:25:14.996Z,2.60
2022-08-02T07:27:45.272Z,2.70
2022-08-02T07:30:15.299Z,2.65
2022-08-02T07:32:45.494Z,1.95
2022-08-02T07:35:16.377Z,2.08
2022-08-02T07:37:54.859Z,2.17
2022-08-02T07:40:27.363Z,2.88
2022-08-02T07:43:03.334Z,2.45
2022-08-02T07:45:36.074Z,1.67
2022-08-02T07:48:15.826Z,1.85
2022-08-02T07:50:46.792Z,2.25
2022-08-02T07:53:18.315Z,1.75
2022-08-02T07:55:48.247Z,1.60
2022-08-02T07:58:18.290Z,1.88
2022-08-02T08:00:48.318Z,1.48
2022-08-02T08:03:18.178Z,1.88
2022-08-02T08:05:49.380Z,4.07
2022-08-02T08:08:21.099Z,1.73
2022-08-02T08:10:51.156Z,1.35
2022-08-02T08:13:21.328Z,1.83
2022-08-02T08:15:52.725Z,1.63
2022-08-02T08:18:23.539Z,1.60
2022-08-02T08:20:53.538Z,1.63
2022-08-02T08:23:25.987Z,1.90
2022-08-02T08:25:55.857Z,1.35
2022-08-02T08:28:25.793Z,1.70
2022-08-02T08:30:55.808Z,1.95
2022-08-02T08:33:25.912Z,1.50
2022-08-02T08:35:56.448Z,1.70
2022-08-02T08:38:28.662Z,1.77
2022-08-02T08:40:58.952Z,1.55
2022-08-02T08:43:28.786Z,1.23
2022-08-02T08:45:58.757Z,1.60
2022-08-02T08:48:31.756Z,1.70
2022-08-02T08:51:08.317Z,1.20
2022-08-02T08:53:44.262Z,2.25
2022-08-02T08:56:16.756Z,1.88
2022-08-02T08:58:48.561Z,3.58
2022-08-02T09:01:18.689Z,1.50
2022-08-02T09:03:48.685Z,2.13
2022-08-02T09:06:18.939Z,2.95
2022-08-02T09:08:50.426Z,1.73
2022-08-02T09:11:24.469Z,1.92
2022-08-02T09:13:56.689Z,2.20
2022-08-02T09:16:35.615Z,1.98
2022-08-02T09:19:19.493Z,1.67
2022-08-02T09:21:50.836Z,1.55
2022-08-02T09:24:23.711Z,1.90
2022-08-02T09:26:53.761Z,1.85
2022-08-02T09:29:26.184Z,1.80
2022-08-02T09:32:04.815Z,2.20
2022-08-02T09:34:53.352Z,8.57
2022-08-02T09:37:25.302Z,3.72
2022-08-02T09:39:59.861Z,10.07
2022-08-02T09:42:30.723Z,14.45
2022-08-02T09:45:03.528Z,9.45
2022-08-02T09:47:37.270Z,2.75
2022-08-02T09:50:13.318Z,2.40
2022-08-02T09:52:45.069Z,4.13
2022-08-02T09:55:16.619Z,6.80
2022-08-02T09:57:50.983Z,3.78
2022-08-02T10:00:37.233Z,2.30
2022-08-02T10:03:21.617Z,4.40
2022-08-02T10:05:56.191Z,2.85
2022-08-02T10:08:34.007Z,4.47
2022-08-02T10:11:05.746Z,3.45
2022-08-02T10:13:37.432Z,5.13
2022-08-02T10:16:07.806Z,7.55
2022-08-02T10:18:39.804Z,4.95
2022-08-02T10:21:15.731Z,4.53
2022-08-02T10:23:47.445Z,5.70
2022-08-02T10:26:22.133Z,14.85
2022-08-02T10:28:55.173Z,3.55
2022-08-02T10:31:28.897Z,3.13
2022-08-02T10:34:01.200Z,4.38
2022-08-02T10:36:33.643Z,4.35
2022-08-02T10:39:04.038Z,3.10
2022-08-02T10:41:50.223Z,4.25
2022-08-02T10:44:25.960Z,3.30
2022-08-02T10:47:24.464Z,3.05
2022-08-02T10:49:56.234Z,4.30
2022-08-02T10:52:26.904Z,3.58
2022-08-02T10:54:58.439Z,3.00
2022-08-02T10:57:31.995Z,3.80
2022-08-02T11:00:05.258Z,4.80
2022-08-02T11:02:41.119Z,4.47
2022-08-02T11:05:13.367Z,3.83
2022-08-02T11:07:47.427Z,3.10
2022-08-02T11:10:38.657Z,3.22
2022-08-02T11:13:13.995Z,3.60
2022-08-02T11:15:58.929Z,3.65
2022-08-02T11:19:03.673Z,3.58
2022-08-02T11:21:37.664Z,3.92
2022-08-02T11:24:28.766Z,3.53
2022-08-02T11:27:01.576Z,4.30
2022-08-02T11:29:40.861Z,3.67
2022-08-02T11:32:18.353Z,2.88
2022-08-02T11:34:50.721Z,3.35
2022-08-02T11:37:30.155Z,3.00
2022-08-02T11:40:00.144Z,3.15
2022-08-02T11:42:34.062Z,3.50
2022-08-02T11:45:08.381Z,3.47
2022-08-02T11:47:47.278Z,2.70
2022-08-02T11:50:18.411Z,3.10
2022-08-02T11:52:48.757Z,3.13
2022-08-02T11:55:18.745Z,2.90
2022-08-02T11:58:04.808Z,3.30
2022-08-02T12:00:37.158Z,3.10
2022-08-02T12:03:08.760Z,3.20
2022-08-02T12:06:04.931Z,4.40
2022-08-02T12:08:30.069Z,2.85
2022-08-02T12:11:03.934Z,3.30
2022-08-02T12:13:45.013Z,3.10
2022-08-02T12:16:52.621Z,3.53
2022-08-02T12:19:26.537Z,3.42
2022-08-02T12:22:12.581Z,5.07
2022-08-02T12:24:44.412Z,4.30
2022-08-02T12:27:30.368Z,3.90
2022-08-02T12:30:02.778Z,3.75
2022-08-02T12:32:34.271Z,3.70
2022-08-02T12:35:12.348Z,3.97
2022-08-02T12:37:45.629Z,4.15
2022-08-02T12:40:27.245Z,10.73
2022-08-02T12:42:59.098Z,17.98
2022-08-02T12:45:38.380Z,3.20
2022-08-02T12:48:14.041Z,21.83
2022-08-02T12:50:44.390Z,15.93
2022-08-02T12:53:16.702Z,7.70
2022-08-02T12:56:00.039Z,6.05
2022-08-02T12:58:47.290Z,7.20
2022-08-02T13:01:22.709Z,4.78
2022-08-02T13:04:12.214Z,7.07
2022-08-02T13:06:45.153Z,14.48
2022-08-02T13:09:17.976Z,14.23
2022-08-02T13:11:48.364Z,5.05
2022-08-02T13:14:18.610Z,6.05
2022-08-02T13:16:49.324Z,8.50
2022-08-02T13:19:20.808Z,9.05
2022-08-02T13:22:02.277Z,3.90
2022-08-02T13:24:40.150Z,6.20
2022-08-02T13:27:24.178Z,4.40
2022-08-02T13:29:55.055Z,5.63
2022-08-02T13:32:26.494Z,5.03
2022-08-02T13:34:58.340Z,5.05
2022-08-02T13:37:28.530Z,4.53
2022-08-02T13:40:20.455Z,3.72
2022-08-02T13:42:50.038Z,3.80
2022-08-02T13:45:19.977Z,3.70
2022-08-02T13:48:04.775Z,3.88
2022-08-02T13:50:36.822Z,3.60
2022-08-02T13:53:06.985Z,3.88
2022-08-02T13:55:37.356Z,5.10
2022-08-02T13:58:13.481Z,8.43
2022-08-02T14:00:43.372Z,4.35
2022-08-02T14:03:13.332Z,4.88
2022-08-02T14:05:48.431Z,5.38
2022-08-02T14:08:20.380Z,4.50
2022-08-02T14:10:51.799Z,3.75
2022-08-02T14:13:22.041Z,4.10
2022-08-02T14:15:52.733Z,3.90
2022-08-02T14:18:22.619Z,3.50
2022-08-02T14:20:53.877Z,3.38
2022-08-02T14:23:49.639Z,3.72
2022-08-02T14:26:26.861Z,2.95
2022-08-02T14:28:58.004Z,3.00
2022-08-02T14:31:28.947Z,2.63
2022-08-02T14:33:58.890Z,2.67
2022-08-02T14:36:30.343Z,2.47
2022-08-02T14:39:01.596Z,2.38
2022-08-02T14:41:34.024Z,3.03
2022-08-02T14:44:23.756Z,2.25
2022-08-02T14:46:54.702Z,2.50
2022-08-02T14:49:26.778Z,2.55
2022-08-02T14:51:58.631Z,3.03
2022-08-02T14:54:31.570Z,2.30
2022-08-02T14:57:04.787Z,2.53
2022-08-02T14:59:34.987Z,2.20
2022-08-02T15:02:05.520Z,2.13
2022-08-02T15:04:42.874Z,2.70
2022-08-02T15:07:15.745Z,2.03
2022-08-02T15:09:45.669Z,1.70
2022-08-02T15:12:16.889Z,2.03
2022-08-02T15:14:47.453Z,2.38
2022-08-02T15:17:17.404Z,2.60
2022-08-02T15:19:57.776Z,1.88
2022-08-02T15:22:32.384Z,1.77
2022-08-02T15:25:03.020Z,2.42
2022-08-02T15:27:34.378Z,1.83
2022-08-02T15:30:10.046Z,2.65
2022-08-02T15:32:40.552Z,2.20
2022-08-02T15:35:25.342Z,2.35
2022-08-02T15:37:56.808Z,2.40
2022-08-02T15:40:27.023Z,2.22
2022-08-02T15:42:56.917Z,2.42
2022-08-02T15:45:27.886Z,2.03
2022-08-02T15:47:58.011Z,2.63
2022-08-02T15:50:28.473Z,2.50
2022-08-02T15:52:59.883Z,2.83
2022-08-02T15:55:30.242Z,2.30
2022-08-02T15:58:22.562Z,1.70
2022-08-02T16:00:53.006Z,2.50
2022-08-02T16:03:23.403Z,2.33
2022-08-02T16:05:53.616Z,2.20
2022-08-02T16:08:24.956Z,2.63
2022-08-02T16:10:54.827Z,3.35
2022-08-02T16:13:53.107Z,5.82
2022-08-02T16:16:25.619Z,5.20
2022-08-02T16:18:55.847Z,8.18
2022-08-02T16:21:26.053Z,14.98
2022-08-02T16:24:02.259Z,24.98
2022-08-02T16:26:34.370Z,7.47
2022-08-02T16:29:06.075Z,7.40
2022-08-02T16:31:41.579Z,4.03
2022-08-02T16:34:12.862Z,4.82
2022-08-02T16:36:42.954Z,7.00
2022-08-02T16:39:14.506Z,5.38
2022-08-02T16:41:51.949Z,4.45
2022-08-02T16:44:29.237Z,4.40
2022-08-02T16:47:01.496Z,3.65
2022-08-02T16:50:04.901Z,3.72
2022-08-02T16:52:21.863Z,3.42
2022-08-02T16:54:53.141Z,2.70
2022-08-02T16:57:23.240Z,2.95
2022-08-02T17:00:08.605Z,3.35
2022-08-02T17:02:40.889Z,5.95
2022-08-02T17:05:14.311Z,3.63
2022-08-02T17:08:15.268Z,2.95
2022-08-02T17:10:37.555Z,3.92
2022-08-02T17:13:10.772Z,2.50
2022-08-02T17:16:16.092Z,3.20
2022-08-02T17:18:34.766Z,3.47
2022-08-02T17:21:14.086Z,3.92
2022-08-02T17:24:08.388Z,3.53
2022-08-02T17:26:40.080Z,4.03
2022-08-02T17:29:15.945Z,3.72
2022-08-02T17:32:04.742Z,3.80
2022-08-02T17:34:36.752Z,4.10
2022-08-02T17:37:06.923Z,4.47
2022-08-02T17:42:30.005Z,4.97
2022-08-02T17:48:04.788Z,3.38
2022-08-02T17:50:35.757Z,4.03
2022-08-02T17:53:06.222Z,3.90
2022-08-02T17:55:42.275Z,4.93
2022-08-02T17:58:13.853Z,3.65
2022-08-02T18:00:44.901Z,3.90
2022-08-02T18:03:15.288Z,3.17
2022-08-02T18:05:53.429Z,3.40
2022-08-02T18:08:25.485Z,3.25
2022-08-02T18:10:55.961Z,4.30
2022-08-02T18:16:21.263Z,5.10
2022-08-02T18:18:52.763Z,5.38
2022-08-02T18:21:22.953Z,5.07
2022-08-02T18:26:43.725Z,6.60
2022-08-02T18:29:15.419Z,9.35
2022-08-02T18:31:51.165Z,13.87
2022-08-02T18:34:24.155Z,13.10
2022-08-02T18:36:54.300Z,18.60
2022-08-02T18:39:25.752Z,7.90
2022-08-02T18:42:02.943Z,9.57
2022-08-02T18:44:34.253Z,9.27
2022-08-02T18:47:04.999Z,4.50
2022-08-02T18:49:46.530Z,4.53
2022-08-02T18:52:31.419Z,4.53
2022-08-02T19:00:25.899Z,3.35
2022-08-02T19:02:56.702Z,6.43
2022-08-02T19:05:53.740Z,7.22
2022-08-02T19:08:18.102Z,7.30
2022-08-02T19:10:49.441Z,9.90
2022-08-02T19:13:20.466Z,7.05
2022-08-02T19:15:53.643Z,7.07
2022-08-02T19:18:26.999Z,4.82
2022-08-02T19:21:05.768Z,3.33
2022-08-02T19:23:37.443Z,4.07
2022-08-02T19:26:24.566Z,4.15
2022-08-02T19:28:55.813Z,3.55
2022-08-02T19:31:34.752Z,3.40
2022-08-02T19:34:20.475Z,3.90
2022-08-02T19:36:55.053Z,3.20
2022-08-02T19:39:25.028Z,3.05
2022-08-02T19:41:57.169Z,2.97
2022-08-02T19:44:29.511Z,3.80
2022-08-02T19:47:01.084Z,3.53
2022-08-02T19:49:40.320Z,2.50
2022-08-02T19:52:21.226Z,2.67
2022-08-02T19:54:55.433Z,2.70
2022-08-02T19:57:26.559Z,2.88
2022-08-02T19:59:58.582Z,3.35
2022-08-02T20:02:30.298Z,3.08
2022-08-02T20:05:08.025Z,3.13
2022-08-02T20:07:54.491Z,3.47
2022-08-02T20:10:25.384Z,3.10
2022-08-02T20:12:56.950Z,4.05
2022-08-02T20:15:56.477Z,3.60
2022-08-02T20:21:18.847Z,3.38
2022-08-02T20:23:59.755Z,3.00
2022-08-02T20:26:30.524Z,3.40
2022-08-02T20:29:02.562Z,3.25
2022-08-02T20:31:33.090Z,3.55
2022-08-02T20:34:04.504Z,2.72
2022-08-02T20:36:38.246Z,2.97
2022-08-02T20:39:08.422Z,3.25
2022-08-02T20:41:46.397Z,3.92
2022-08-02T20:44:31.079Z,4.10
2022-08-02T20:47:02.125Z,2.97
2022-08-02T20:49:40.931Z,3.15
2022-08-02T20:52:24.200Z,3.00
2022-08-02T20:54:54.762Z,3.35
2022-08-02T20:57:49.135Z,3.45
2022-08-02T21:00:16.720Z,3.33
2022-08-02T21:02:46.957Z,3.17
2022-08-02T21:05:18.915Z,2.97
2022-08-02T21:07:53.472Z,2.80
2022-08-02T21:10:24.811Z,2.78
2022-08-02T21:12:55.677Z,2.83
2022-08-02T21:15:26.808Z,3.13
2022-08-02T21:18:01.294Z,2.75
2022-08-02T21:20:35.973Z,2.33
2022-08-02T21:23:06.029Z,3.00
2022-08-02T21:25:57.143Z,2.88
2022-08-02T21:28:43.763Z,2.80
2022-08-02T21:31:16.059Z,2.97
2022-08-02T21:33:58.651Z,3.72
2022-08-02T21:36:33.244Z,2.92
2022-08-02T21:39:09.113Z,2.60
2022-08-02T21:41:47.077Z,2.95
2022-08-02T21:44:18.463Z,2.63
2022-08-02T21:46:49.992Z,3.08
2022-08-02T21:49:21.065Z,3.38
2022-08-02T21:52:12.204Z,3.00
2022-08-02T21:54:45.482Z,3.13
2022-08-02T21:57:16.687Z,3.40
2022-08-02T21:59:48.294Z,3.53
2022-08-02T22:02:30.462Z,3.75
2022-08-02T22:05:01.938Z,3.00
2022-08-02T22:07:38.623Z,3.05
2022-08-02T22:10:10.239Z,3.17
2022-08-02T22:12:40.657Z,3.20
2022-08-02T22:15:11.984Z,3.38
2022-08-02T22:17:53.403Z,3.35
2022-08-02T22:20:29.772Z,2.90
2022-08-02T22:23:01.277Z,3.00
2022-08-02T22:25:37.360Z,3.00
2022-08-02T22:28:37.983Z,3.20
2022-08-02T22:31:00.162Z,2.83
2022-08-02T22:34:00.946Z,2.50
2022-08-02T22:36:32.930Z,3.35
2022-08-02T22:39:19.163Z,3.22
2022-08-02T22:42:05.365Z,2.90
2022-08-02T22:44:39.363Z,3.20
2022-08-02T22:47:15.238Z,3.17
2022-08-02T22:49:53.248Z,2.72
2022-08-02T22:52:25.968Z,3.20
2022-08-02T22:54:57.321Z,2.90
2022-08-02T22:58:40.203Z,3.88
2022-08-02T22:58:44.031Z,5.30
2022-08-02T22:58:46.369Z,4.40
2022-08-02T22:58:49.821Z,5.07
2022-08-02T22:58:55.200Z,3.72
2022-08-02T22:58:59.954Z,4.35
2022-08-02T23:00:17.976Z,3.17
2022-08-02T23:02:48.132Z,2.95
2022-08-02T23:05:18.200Z,2.90
2022-08-02T23:07:48.327Z,2.65
2022-08-02T23:10:19.743Z,3.13
2022-08-02T23:12:50.021Z,3.10
2022-08-02T23:15:20.182Z,3.45
2022-08-02T23:18:07.159Z,3.20
2022-08-02T23:20:37.480Z,3.40
2022-08-02T23:23:11.848Z,2.72
2022-08-02T23:25:43.297Z,2.90
2022-08-02T23:28:13.103Z,2.85
2022-08-02T23:30:42.984Z,2.80
2022-08-02T23:33:14.718Z,2.97
2022-08-02T23:35:45.160Z,2.75
2022-08-02T23:38:15.266Z,2.70
2022-08-02T23:40:46.620Z,2.80
2022-08-02T23:43:19.093Z,3.15
2022-08-02T23:45:49.054Z,3.10
2022-08-02T23:48:19.034Z,2.70
2022-08-02T23:50:49.097Z,3.33
2022-08-02T23:53:18.959Z,3.15
2022-08-02T23:55:50.216Z,3.55
2022-08-02T23:58:20.095Z,3.13
